createdAt,value
2023-05-12T00:00:00.462Z,15.4
2023-05-12T00:01:00.426Z,15.4
2023-05-12T00:02:00.402Z,15.4
2023-05-12T00:03:00.565Z,15.4
2023-05-12T00:04:00.515Z,15.4
2023-05-12T00:05:00.485Z,15.4
2023-05-12T00:06:00.524Z,15.4
2023-05-12T00:07:00.400Z,15.4
2023-05-12T00:08:00.391Z,15.4
2023-05-12T00:09:00.413Z,15.5
2023-05-12T00:10:00.376Z,15.5
2023-05-12T00:11:00.410Z,15.5
2023-05-12T00:12:00.860Z,15.4
2023-05-12T00:13:00.387Z,15.4
2023-05-12T00:14:00.521Z,15.4
2023-05-12T00:15:00.449Z,15.4
2023-05-12T00:16:01.274Z,15.5
2023-05-12T00:17:01.949Z,15.5
2023-05-12T00:18:00.450Z,15.5
2023-05-12T00:19:00.389Z,15.5
2023-05-12T00:20:00.585Z,15.5
2023-05-12T00:21:00.401Z,15.5
2023-05-12T00:22:00.369Z,15.5
2023-05-12T00:23:00.401Z,15.5
2023-05-12T00:24:00.407Z,15.4
2023-05-12T00:25:00.381Z,15.5
2023-05-12T00:26:00.475Z,15.5
2023-05-12T00:27:00.528Z,15.5
2023-05-12T00:28:00.454Z,15.4
2023-05-12T00:29:00.451Z,15.4
2023-05-12T00:30:00.406Z,15.4
2023-05-12T00:31:01.226Z,15.4
2023-05-12T00:32:00.537Z,15.4
2023-05-12T00:33:00.486Z,15.4
2023-05-12T00:34:00.419Z,15.4
2023-05-12T00:35:00.407Z,15.4
2023-05-12T00:36:00.396Z,15.4
2023-05-12T00:37:00.401Z,15.4
2023-05-12T00:38:00.413Z,15.4
2023-05-12T00:39:00.484Z,15.4
2023-05-12T00:40:00.401Z,15.3
2023-05-12T00:41:00.435Z,15.3
2023-05-12T00:42:00.457Z,15.3
2023-05-12T00:43:00.440Z,15.3
2023-05-12T00:44:00.398Z,15.3
2023-05-12T00:45:00.723Z,15.4
2023-05-12T00:46:01.353Z,15.4
2023-05-12T00:47:00.490Z,15.4
2023-05-12T00:48:00.741Z,15.4
2023-05-12T00:49:00.408Z,15.4
2023-05-12T00:50:01.283Z,15.4
2023-05-12T00:51:01.496Z,15.5
2023-05-12T00:52:01.171Z,15.5
2023-05-12T00:53:00.725Z,15.5
2023-05-12T00:54:01.241Z,15.5
2023-05-12T00:55:00.776Z,15.6
2023-05-12T00:56:00.433Z,15.6
2023-05-12T00:57:00.817Z,15.6
2023-05-12T00:58:00.530Z,15.6
2023-05-12T00:59:00.411Z,15.6
2023-05-12T01:00:00.417Z,15.6
2023-05-12T01:01:00.474Z,15.6
2023-05-12T01:02:00.501Z,15.6
2023-05-12T01:03:00.684Z,15.6
2023-05-12T01:04:01.240Z,15.6
2023-05-12T01:05:00.569Z,15.6
2023-05-12T01:06:10.287Z,15.6
2023-05-12T01:07:00.393Z,15.6
2023-05-12T01:08:02.094Z,15.6
2023-05-12T01:09:00.664Z,15.6
2023-05-12T01:10:00.422Z,15.6
2023-05-12T01:11:00.400Z,15.6
2023-05-12T01:12:00.497Z,15.6
2023-05-12T01:13:00.438Z,15.6
2023-05-12T01:14:00.450Z,15.6
2023-05-12T01:15:00.488Z,15.7
2023-05-12T01:16:01.612Z,15.8
2023-05-12T01:17:01.363Z,15.8
2023-05-12T01:18:01.042Z,15.7
2023-05-12T01:19:03.656Z,15.7
2023-05-12T01:20:01.296Z,15.7
2023-05-12T01:21:00.948Z,15.7
2023-05-12T01:22:00.507Z,15.6
2023-05-12T01:23:00.999Z,15.6
2023-05-12T01:24:04.924Z,15.6
2023-05-12T01:25:01.703Z,15.6
2023-05-12T01:26:03.859Z,15.6
2023-05-12T01:27:00.847Z,15.6
2023-05-12T01:28:01.421Z,15.6
2023-05-12T01:29:01.446Z,15.6
2023-05-12T01:30:01.874Z,15.6
2023-05-12T01:31:01.069Z,15.6
2023-05-12T01:32:00.874Z,15.7
2023-05-12T01:33:00.516Z,15.7
2023-05-12T01:34:00.466Z,15.7
2023-05-12T01:35:00.402Z,15.7
2023-05-12T01:36:00.477Z,15.7
2023-05-12T01:37:00.510Z,15.7
2023-05-12T01:38:00.567Z,15.6
2023-05-12T01:39:00.374Z,15.6
2023-05-12T01:40:00.632Z,15.6
2023-05-12T01:41:00.405Z,15.6
2023-05-12T01:42:00.393Z,15.6
2023-05-12T01:43:00.407Z,15.6
2023-05-12T01:44:00.425Z,15.6
2023-05-12T01:45:00.514Z,15.6
2023-05-12T01:46:00.444Z,15.7
2023-05-12T01:47:00.505Z,15.7
2023-05-12T01:48:00.474Z,15.6
2023-05-12T01:49:00.379Z,15.6
2023-05-12T01:50:00.435Z,15.6
2023-05-12T01:51:00.504Z,15.6
2023-05-12T01:52:00.392Z,15.6
2023-05-12T01:53:00.497Z,15.6
2023-05-12T01:54:00.402Z,15.6
2023-05-12T01:55:00.421Z,15.6
2023-05-12T01:56:00.498Z,15.7
2023-05-12T01:57:00.375Z,15.7
2023-05-12T01:58:00.385Z,15.7
2023-05-12T01:59:00.479Z,15.7
2023-05-12T02:00:00.447Z,15.7
2023-05-12T02:01:00.393Z,15.7
2023-05-12T02:02:00.465Z,15.7
2023-05-12T02:03:00.495Z,15.7
2023-05-12T02:04:00.527Z,15.7
2023-05-12T02:05:00.413Z,15.7
2023-05-12T02:06:00.415Z,15.8
2023-05-12T02:07:00.560Z,15.8
2023-05-12T02:08:00.375Z,15.8
2023-05-12T02:09:00.450Z,15.8
2023-05-12T02:10:00.422Z,15.8
2023-05-12T02:11:04.291Z,15.8
2023-05-12T02:12:00.385Z,15.8
2023-05-12T02:13:00.413Z,15.8
2023-05-12T02:14:00.419Z,15.7
2023-05-12T02:15:00.418Z,15.7
2023-05-12T02:16:00.745Z,15.8
2023-05-12T02:17:00.422Z,15.7
2023-05-12T02:18:00.587Z,15.7
2023-05-12T02:19:00.429Z,15.7
2023-05-12T02:20:00.399Z,15.7
2023-05-12T02:21:00.394Z,15.6
2023-05-12T02:22:00.468Z,15.6
2023-05-12T02:23:00.459Z,15.6
2023-05-12T02:24:00.402Z,15.7
2023-05-12T02:25:00.533Z,15.7
2023-05-12T02:26:00.413Z,15.7
2023-05-12T02:27:00.385Z,15.7
2023-05-12T02:28:00.418Z,15.8
2023-05-12T02:29:00.502Z,15.8
2023-05-12T02:30:00.481Z,15.8
2023-05-12T02:31:00.422Z,15.8
2023-05-12T02:32:00.436Z,15.8
2023-05-12T02:33:00.525Z,15.8
2023-05-12T02:34:00.427Z,15.7
2023-05-12T02:35:00.406Z,15.7
2023-05-12T02:36:00.422Z,15.8
2023-05-12T02:37:00.403Z,15.8
2023-05-12T02:38:00.403Z,15.8
2023-05-12T02:39:00.456Z,15.8
2023-05-12T02:40:00.491Z,15.8
2023-05-12T02:41:00.404Z,15.8
2023-05-12T02:42:00.451Z,15.8
2023-05-12T02:43:00.438Z,15.8
2023-05-12T02:44:00.400Z,15.8
2023-05-12T02:45:00.397Z,15.8
2023-05-12T02:46:00.501Z,15.9
2023-05-12T02:47:00.379Z,15.9
2023-05-12T02:48:00.435Z,15.9
2023-05-12T02:49:00.407Z,15.9
2023-05-12T02:50:00.424Z,15.9
2023-05-12T02:51:00.516Z,15.9
2023-05-12T02:52:00.401Z,16.0
2023-05-12T02:53:00.409Z,16.0
2023-05-12T02:54:00.393Z,16.0
2023-05-12T02:55:00.408Z,16.0
2023-05-12T02:56:00.468Z,16.0
2023-05-12T02:57:03.219Z,16.0
2023-05-12T02:58:00.449Z,16.0
2023-05-12T02:59:00.389Z,16.0
2023-05-12T03:00:01.026Z,16.0
2023-05-12T03:02:00.676Z,15.9
2023-05-12T03:03:00.499Z,15.9
2023-05-12T03:04:00.405Z,15.9
2023-05-12T03:05:00.596Z,15.9
2023-05-12T03:06:00.450Z,15.9
2023-05-12T03:07:00.431Z,15.9
2023-05-12T03:08:00.462Z,15.8
2023-05-12T03:09:00.436Z,15.8
2023-05-12T03:10:00.530Z,15.8
2023-05-12T03:11:00.520Z,15.8
2023-05-12T03:12:00.408Z,15.8
2023-05-12T03:13:00.434Z,15.8
2023-05-12T03:14:00.543Z,15.8
2023-05-12T03:15:00.385Z,15.8
2023-05-12T03:16:00.480Z,15.9
2023-05-12T03:17:00.424Z,15.9
2023-05-12T03:18:00.443Z,15.9
2023-05-12T03:19:00.444Z,15.8
2023-05-12T03:20:00.448Z,15.8
2023-05-12T03:21:00.423Z,15.8
2023-05-12T03:22:00.800Z,15.7
2023-05-12T03:23:00.416Z,15.7
2023-05-12T03:24:00.508Z,15.7
2023-05-12T03:25:00.413Z,15.7
2023-05-12T03:26:00.396Z,15.8
2023-05-12T03:27:00.398Z,15.8
2023-05-12T03:28:01.489Z,15.8
2023-05-12T03:29:00.382Z,15.8
2023-05-12T03:30:00.565Z,15.8
2023-05-12T03:31:00.455Z,15.8
2023-05-12T03:32:00.378Z,15.8
2023-05-12T03:33:00.498Z,15.7
2023-05-12T03:34:00.387Z,15.7
2023-05-12T03:35:00.448Z,15.7
2023-05-12T03:36:00.438Z,15.8
2023-05-12T03:37:00.428Z,15.8
2023-05-12T03:38:00.445Z,15.8
2023-05-12T03:39:00.420Z,15.8
2023-05-12T03:40:00.565Z,15.8
2023-05-12T03:41:04.107Z,15.8
2023-05-12T03:42:00.434Z,15.8
2023-05-12T03:43:00.475Z,15.8
2023-05-12T03:44:00.467Z,15.7
2023-05-12T03:45:00.453Z,15.7
2023-05-12T03:46:00.584Z,15.8
2023-05-12T03:47:00.479Z,15.8
2023-05-12T03:48:00.455Z,15.8
2023-05-12T03:49:00.424Z,15.7
2023-05-12T03:50:00.905Z,15.7
2023-05-12T03:51:00.486Z,15.6
2023-05-12T03:52:00.387Z,15.6
2023-05-12T03:53:00.398Z,15.6
2023-05-12T03:54:00.445Z,15.6
2023-05-12T03:55:00.396Z,15.6
2023-05-12T03:56:04.222Z,15.6
2023-05-12T03:57:00.599Z,15.7
2023-05-12T03:58:00.407Z,15.7
2023-05-12T03:59:00.404Z,15.6
2023-05-12T04:00:00.484Z,15.6
2023-05-12T04:01:00.407Z,15.6
2023-05-12T04:02:00.398Z,15.6
2023-05-12T04:03:00.469Z,15.6
2023-05-12T04:04:00.422Z,15.5
2023-05-12T04:05:00.427Z,15.5
2023-05-12T04:06:01.246Z,15.5
2023-05-12T04:07:00.412Z,15.5
2023-05-12T04:08:00.561Z,15.5
2023-05-12T04:09:00.388Z,15.5
2023-05-12T04:10:00.442Z,15.4
2023-05-12T04:11:00.778Z,15.4
2023-05-12T04:12:00.399Z,15.4
2023-05-12T04:13:00.471Z,15.4
2023-05-12T04:14:00.423Z,15.4
2023-05-12T04:15:00.418Z,15.4
2023-05-12T04:16:00.445Z,15.4
2023-05-12T04:17:00.440Z,15.4
2023-05-12T04:18:01.210Z,15.4
2023-05-12T04:19:00.996Z,15.4
2023-05-12T04:20:00.496Z,15.4
2023-05-12T04:21:00.928Z,15.3
2023-05-12T04:22:00.457Z,15.3
2023-05-12T04:23:00.397Z,15.3
2023-05-12T04:24:00.405Z,15.2
2023-05-12T04:25:00.444Z,15.2
2023-05-12T04:26:02.484Z,15.2
2023-05-12T04:27:00.460Z,15.2
2023-05-12T04:28:00.392Z,15.1
2023-05-12T04:29:00.433Z,15.1
2023-05-12T04:30:00.647Z,15.1
2023-05-12T04:31:03.572Z,15.0
2023-05-12T04:32:00.453Z,15.0
2023-05-12T04:33:00.474Z,15.0
2023-05-12T04:34:00.413Z,15.0
2023-05-12T04:35:00.441Z,15.0
2023-05-12T04:36:00.409Z,15.0
2023-05-12T04:37:00.426Z,15.0
2023-05-12T04:38:00.514Z,15.0
2023-05-12T04:39:00.388Z,15.0
2023-05-12T04:40:00.442Z,14.9
2023-05-12T04:41:00.633Z,14.9
2023-05-12T04:42:00.556Z,14.9
2023-05-12T04:43:00.410Z,14.9
2023-05-12T04:44:00.779Z,14.9
2023-05-12T04:45:00.434Z,14.9
2023-05-12T04:46:00.976Z,14.9
2023-05-12T04:47:00.428Z,14.9
2023-05-12T04:48:00.438Z,14.9
2023-05-12T04:49:00.474Z,14.9
2023-05-12T04:50:00.466Z,14.9
2023-05-12T04:51:00.409Z,14.9
2023-05-12T04:52:00.455Z,14.9
2023-05-12T04:53:00.406Z,14.9
2023-05-12T04:54:00.430Z,14.9
2023-05-12T04:55:00.398Z,14.9
2023-05-12T04:56:00.543Z,14.9
2023-05-12T04:57:00.428Z,14.9
2023-05-12T04:58:00.441Z,15.0
2023-05-12T04:59:00.379Z,15.0
2023-05-12T05:00:00.479Z,15.0
2023-05-12T05:01:00.498Z,15.0
2023-05-12T05:02:00.444Z,15.0
2023-05-12T05:03:00.689Z,15.0
2023-05-12T05:04:00.431Z,15.0
2023-05-12T05:05:00.407Z,15.0
2023-05-12T05:06:00.408Z,15.1
2023-05-12T05:07:00.403Z,15.2
2023-05-12T05:08:00.420Z,15.2
2023-05-12T05:09:00.533Z,15.2
2023-05-12T05:10:00.426Z,15.2
2023-05-12T05:11:00.483Z,15.2
2023-05-12T05:12:00.394Z,15.2
2023-05-12T05:13:00.375Z,15.2
2023-05-12T05:14:00.572Z,15.3
2023-05-12T05:15:00.377Z,15.3
2023-05-12T05:16:00.488Z,15.3
2023-05-12T05:17:00.490Z,15.4
2023-05-12T05:18:01.956Z,15.4
2023-05-12T05:19:02.075Z,15.4
2023-05-12T05:20:00.494Z,15.5
2023-05-12T05:21:00.590Z,15.5
2023-05-12T05:22:00.406Z,15.5
2023-05-12T05:23:00.422Z,15.5
2023-05-12T05:24:00.394Z,15.5
2023-05-12T05:25:00.603Z,15.5
2023-05-12T05:26:00.394Z,15.6
2023-05-12T05:27:00.396Z,15.6
2023-05-12T05:28:00.374Z,15.6
2023-05-12T05:29:00.508Z,15.6
2023-05-12T05:30:00.395Z,15.6
2023-05-12T05:31:00.440Z,15.6
2023-05-12T05:32:00.406Z,15.7
2023-05-12T05:33:00.430Z,15.7
2023-05-12T05:34:00.459Z,15.7
2023-05-12T05:35:00.410Z,15.8
2023-05-12T05:36:00.478Z,15.8
2023-05-12T05:37:00.401Z,15.9
2023-05-12T05:38:00.507Z,15.9
2023-05-12T05:39:00.383Z,15.9
2023-05-12T05:40:00.410Z,15.9
2023-05-12T05:41:00.463Z,15.9
2023-05-12T05:42:00.417Z,15.9
2023-05-12T05:43:00.412Z,15.9
2023-05-12T05:44:00.499Z,15.9
2023-05-12T05:45:00.430Z,15.9
2023-05-12T05:46:00.426Z,15.9
2023-05-12T05:47:00.562Z,16.0
2023-05-12T05:48:00.437Z,16.0
2023-05-12T05:49:00.402Z,16.0
2023-05-12T05:56:00.437Z,16.1
2023-05-12T05:57:00.403Z,16.1
2023-05-12T05:58:00.469Z,16.1
2023-05-12T05:59:01.096Z,16.0
2023-05-12T06:00:00.459Z,16.1
2023-05-12T06:01:00.405Z,16.0
2023-05-12T06:02:00.518Z,16.0
2023-05-12T06:03:00.529Z,16.0
2023-05-12T06:04:00.492Z,16.0
2023-05-12T06:05:00.402Z,16.0
2023-05-12T06:06:00.476Z,16.1
2023-05-12T06:07:00.399Z,16.2
2023-05-12T06:08:00.414Z,16.2
2023-05-12T06:09:00.479Z,16.2
2023-05-12T06:10:00.404Z,16.2
2023-05-12T06:11:00.429Z,16.1
2023-05-12T06:12:00.404Z,16.1
2023-05-12T06:13:00.417Z,16.1
2023-05-12T06:14:00.404Z,16.1
2023-05-12T06:15:00.465Z,16.1
2023-05-12T06:16:00.410Z,16.1
2023-05-12T06:17:00.460Z,16.1
2023-05-12T06:18:00.442Z,16.2
2023-05-12T06:19:00.425Z,16.2
2023-05-12T06:20:00.517Z,16.2
2023-05-12T06:21:00.395Z,16.2
2023-05-12T06:22:00.412Z,16.2
2023-05-12T06:23:00.396Z,16.2
2023-05-12T06:24:00.422Z,16.2
2023-05-12T06:25:00.629Z,16.3
2023-05-12T06:26:00.413Z,16.3
2023-05-12T06:27:00.397Z,16.3
2023-05-12T06:28:00.420Z,16.4
2023-05-12T06:29:00.524Z,16.4
2023-05-12T06:30:00.396Z,16.5
2023-05-12T06:31:00.484Z,16.5
2023-05-12T06:32:00.443Z,16.6
2023-05-12T06:33:00.578Z,16.6
2023-05-12T06:34:00.489Z,16.6
2023-05-12T06:35:00.445Z,16.7
2023-05-12T06:36:00.388Z,16.8
2023-05-12T06:37:00.406Z,16.9
2023-05-12T06:38:00.413Z,16.9
2023-05-12T06:39:00.411Z,17.0
2023-05-12T06:40:00.426Z,17.0
2023-05-12T06:41:00.457Z,17.1
2023-05-12T06:42:00.523Z,17.2
2023-05-12T06:43:00.398Z,17.4
2023-05-12T06:44:00.404Z,17.5
2023-05-12T06:45:00.431Z,17.5
2023-05-12T06:46:00.428Z,17.6
2023-05-12T06:47:00.408Z,17.7
2023-05-12T06:48:00.475Z,17.8
2023-05-12T06:49:00.432Z,17.8
2023-05-12T06:50:00.383Z,17.9
2023-05-12T06:51:00.459Z,17.9
2023-05-12T06:52:00.679Z,17.9
2023-05-12T06:53:00.642Z,18.0
2023-05-12T06:54:00.477Z,18.1
2023-05-12T06:55:00.735Z,18.1
2023-05-12T06:56:00.411Z,18.2
2023-05-12T06:57:00.420Z,18.2
2023-05-12T06:58:00.476Z,18.3
2023-05-12T06:59:00.400Z,18.3
2023-05-12T07:00:00.422Z,18.4
2023-05-12T07:01:00.453Z,18.5
2023-05-12T07:02:00.460Z,18.6
2023-05-12T07:03:00.495Z,18.6
2023-05-12T07:04:00.575Z,18.8
2023-05-12T07:05:00.497Z,18.8
2023-05-12T07:06:00.454Z,19.0
2023-05-12T07:07:00.438Z,19.2
2023-05-12T07:08:00.666Z,19.4
2023-05-12T07:09:00.426Z,19.5
2023-05-12T07:10:00.462Z,19.6
2023-05-12T07:11:00.710Z,19.6
2023-05-12T07:12:00.384Z,19.7
2023-05-12T07:13:00.437Z,19.7
2023-05-12T07:14:00.417Z,19.8
2023-05-12T07:15:00.511Z,19.8
2023-05-12T07:16:00.479Z,19.9
2023-05-12T07:17:00.390Z,20.0
2023-05-12T07:18:00.479Z,20.3
2023-05-12T07:19:00.422Z,20.5
2023-05-12T07:20:00.428Z,20.8
2023-05-12T07:21:00.383Z,20.9
2023-05-12T07:22:00.424Z,20.9
2023-05-12T07:23:00.391Z,20.9
2023-05-12T07:24:00.388Z,21.0
2023-05-12T07:25:00.423Z,21.3
2023-05-12T07:26:01.121Z,21.7
2023-05-12T07:27:00.919Z,22.4
2023-05-12T07:28:00.425Z,22.9
2023-05-12T07:29:00.847Z,23.4
2023-05-12T07:30:00.404Z,23.8
2023-05-12T07:31:01.350Z,23.7
2023-05-12T07:32:00.422Z,23.9
2023-05-12T07:33:00.497Z,24.2
2023-05-12T07:34:00.430Z,24.5
2023-05-12T07:35:00.439Z,24.9
2023-05-12T07:36:00.707Z,25.0
2023-05-12T07:37:00.480Z,25.0
2023-05-12T07:38:00.425Z,24.8
2023-05-12T07:39:00.578Z,25.1
2023-05-12T07:40:00.409Z,25.5
2023-05-12T07:41:00.498Z,25.4
2023-05-12T07:42:00.424Z,25.7
2023-05-12T07:43:00.409Z,25.9
2023-05-12T07:44:00.542Z,26.1
2023-05-12T07:45:00.470Z,25.9
2023-05-12T07:46:00.477Z,26.1
2023-05-12T07:47:00.534Z,26.5
2023-05-12T07:48:00.491Z,26.7
2023-05-12T07:49:00.402Z,26.8
2023-05-12T07:50:01.007Z,26.9
2023-05-12T07:51:00.423Z,27.1
2023-05-12T07:52:00.532Z,27.3
2023-05-12T07:53:00.430Z,27.4
2023-05-12T07:54:00.417Z,27.7
2023-05-12T07:55:00.454Z,27.8
2023-05-12T07:56:00.506Z,28.0
2023-05-12T07:57:00.442Z,28.1
2023-05-12T07:58:00.527Z,28.2
2023-05-12T07:59:00.498Z,28.3
2023-05-12T08:00:00.414Z,28.3
2023-05-12T08:01:01.659Z,28.2
2023-05-12T08:02:00.441Z,28.1
2023-05-12T08:03:00.665Z,27.8
2023-05-12T08:04:00.589Z,27.8
2023-05-12T08:05:00.395Z,27.9
2023-05-12T08:06:00.421Z,28.2
2023-05-12T08:07:00.409Z,28.5
2023-05-12T08:08:00.424Z,28.7
2023-05-12T08:09:00.505Z,28.7
2023-05-12T08:10:01.118Z,28.6
2023-05-12T08:11:00.392Z,28.4
2023-05-12T08:12:00.397Z,28.1
2023-05-12T08:13:00.416Z,28.3
2023-05-12T08:14:00.491Z,28.1
2023-05-12T08:15:00.405Z,28.1
2023-05-12T08:16:00.430Z,28.3
2023-05-12T08:17:00.488Z,28.2
2023-05-12T08:18:00.418Z,28.2
2023-05-12T08:19:00.558Z,27.9
2023-05-12T08:20:00.800Z,28.0
2023-05-12T08:21:00.519Z,28.0
2023-05-12T08:22:00.414Z,27.7
2023-05-12T08:23:00.436Z,27.7
2023-05-12T08:24:00.396Z,27.5
2023-05-12T08:25:00.397Z,27.5
2023-05-12T08:26:00.405Z,27.7
2023-05-12T08:27:00.376Z,27.9
2023-05-12T08:28:00.597Z,28.0
2023-05-12T08:29:00.432Z,28.0
2023-05-12T08:30:00.464Z,28.1
2023-05-12T08:31:03.368Z,28.0
2023-05-12T08:32:01.683Z,28.0
2023-05-12T08:33:01.576Z,28.0
2023-05-12T08:34:09.693Z,28.0
2023-05-12T08:35:00.477Z,28.0
2023-05-12T08:36:00.545Z,28.1
2023-05-12T08:37:00.442Z,28.2
2023-05-12T08:38:00.602Z,28.2
2023-05-12T08:39:00.755Z,28.2
2023-05-12T08:40:00.590Z,28.3
2023-05-12T08:41:03.810Z,28.2
2023-05-12T08:42:06.475Z,28.2
2023-05-12T08:43:06.837Z,28.2
2023-05-12T08:44:01.168Z,28.0
2023-05-12T08:45:01.129Z,27.9
2023-05-12T08:46:00.626Z,28.2
2023-05-12T08:47:00.756Z,28.4
2023-05-12T08:48:01.794Z,28.2
2023-05-12T08:49:01.631Z,28.1
2023-05-12T08:50:01.280Z,28.1
2023-05-12T08:51:01.627Z,28.1
2023-05-12T08:52:01.251Z,28.2
2023-05-12T08:53:01.667Z,28.2
2023-05-12T08:54:02.691Z,28.1
2023-05-12T08:55:03.119Z,28.0
2023-05-12T08:57:09.467Z,28.0
2023-05-12T08:58:01.618Z,28.0
2023-05-12T08:59:01.991Z,27.9
2023-05-12T09:00:01.216Z,27.6
2023-05-12T09:01:02.606Z,27.7
2023-05-12T09:02:01.209Z,27.6
2023-05-12T09:03:01.294Z,27.5
2023-05-12T09:04:00.759Z,27.5
2023-05-12T09:05:00.411Z,27.7
2023-05-12T09:06:00.871Z,27.9
2023-05-12T09:07:00.560Z,28.0
2023-05-12T09:08:00.607Z,28.1
2023-05-12T09:09:00.481Z,28.2
2023-05-12T09:10:02.435Z,28.2
2023-05-12T09:11:00.799Z,28.1
2023-05-12T09:12:00.920Z,28.1
2023-05-12T09:13:02.413Z,27.9
2023-05-12T09:14:00.449Z,28.0
2023-05-12T09:15:03.831Z,28.1
2023-05-12T09:16:01.521Z,28.3
2023-05-12T09:17:02.454Z,28.5
2023-05-12T09:18:00.435Z,28.5
2023-05-12T09:19:00.964Z,28.3
2023-05-12T09:20:00.486Z,28.3
2023-05-12T09:21:00.506Z,28.3
2023-05-12T09:22:00.412Z,28.2
2023-05-12T09:23:10.292Z,28.1
2023-05-12T09:24:01.751Z,28.0
2023-05-12T09:25:00.747Z,28.1
2023-05-12T09:26:00.481Z,28.2
2023-05-12T09:27:00.394Z,28.4
2023-05-12T09:28:00.539Z,28.4
2023-05-12T09:36:00.428Z,28.4
2023-05-12T09:37:02.320Z,28.5
2023-05-12T09:38:04.679Z,28.4
2023-05-12T09:39:01.488Z,28.2
2023-05-12T09:40:00.990Z,28.2
2023-05-12T09:41:00.416Z,28.3
2023-05-12T09:42:00.507Z,28.2
2023-05-12T09:43:00.453Z,28.4
2023-05-12T09:44:00.433Z,28.3
2023-05-12T09:45:03.936Z,28.5
2023-05-12T09:46:04.342Z,28.6
2023-05-12T09:47:07.816Z,28.3
2023-05-12T09:48:06.736Z,28.2
2023-05-12T09:49:00.440Z,28.1
2023-05-12T09:50:00.825Z,28.1
2023-05-12T09:51:00.440Z,28.0
2023-05-12T09:52:02.768Z,28.1
2023-05-12T09:53:00.423Z,28.4
2023-05-12T09:54:00.411Z,28.5
2023-05-12T09:55:04.875Z,28.3
2023-05-12T09:56:00.375Z,28.3
2023-05-12T09:57:01.491Z,28.3
2023-05-12T09:58:01.278Z,28.4
2023-05-12T09:59:02.013Z,28.2
2023-05-12T10:00:01.110Z,28.2
2023-05-12T10:01:18.352Z,28.0
2023-05-12T10:02:01.053Z,27.8
2023-05-12T10:03:02.513Z,27.9
2023-05-12T10:04:00.727Z,27.7
2023-05-12T10:05:04.866Z,27.8
2023-05-12T10:06:02.111Z,27.9
2023-05-12T10:07:00.431Z,27.9
2023-05-12T10:08:03.267Z,27.8
2023-05-12T10:09:00.421Z,27.6
2023-05-12T10:10:02.284Z,27.7
2023-05-12T10:11:01.881Z,27.7
2023-05-12T10:12:01.885Z,27.7
2023-05-12T10:13:00.467Z,27.5
2023-05-12T10:14:00.497Z,27.4
2023-05-12T10:15:01.894Z,27.3
2023-05-12T10:16:01.610Z,27.5
2023-05-12T10:17:00.803Z,27.7
2023-05-12T10:18:00.681Z,27.5
2023-05-12T10:19:01.725Z,27.2
2023-05-12T10:20:01.268Z,27.0
2023-05-12T10:21:01.143Z,26.7
2023-05-12T10:22:00.488Z,26.5
2023-05-12T10:23:00.953Z,26.2
2023-05-12T10:24:02.000Z,26.2
2023-05-12T10:25:00.861Z,25.9
2023-05-12T10:26:00.490Z,25.9
2023-05-12T10:27:00.601Z,25.9
2023-05-12T10:28:00.762Z,25.7
2023-05-12T10:29:00.499Z,25.6
2023-05-12T10:30:01.443Z,25.5
2023-05-12T10:31:02.359Z,25.4
2023-05-12T10:32:00.642Z,25.4
2023-05-12T10:33:00.658Z,25.3
2023-05-12T10:34:01.677Z,25.3
2023-05-12T10:35:08.761Z,25.3
2023-05-12T10:36:00.490Z,25.5
2023-05-12T10:37:02.983Z,25.4
2023-05-12T10:38:01.331Z,25.3
2023-05-12T10:39:04.576Z,25.3
2023-05-12T10:40:00.472Z,25.3
2023-05-12T10:41:01.647Z,25.3
2023-05-12T10:42:01.181Z,25.2
2023-05-12T10:43:00.592Z,25.4
2023-05-12T10:44:00.844Z,25.4
2023-05-12T10:45:00.428Z,25.4
2023-05-12T10:46:10.390Z,25.5
2023-05-12T10:47:00.430Z,25.7
2023-05-12T10:48:04.603Z,25.6
2023-05-12T10:49:01.812Z,25.7
2023-05-12T10:50:00.424Z,25.8
2023-05-12T10:51:08.799Z,25.9
2023-05-12T10:52:00.424Z,25.9
2023-05-12T10:53:00.431Z,26.1
2023-05-12T10:54:01.635Z,26.3
2023-05-12T10:55:01.205Z,26.6
2023-05-12T10:56:03.318Z,26.8
2023-05-12T10:57:00.698Z,26.6
2023-05-12T10:58:05.157Z,26.5
2023-05-12T10:59:10.508Z,26.6
2023-05-12T11:00:01.202Z,26.6
2023-05-12T11:01:05.494Z,26.4
2023-05-12T11:02:01.604Z,26.5
2023-05-12T11:03:08.142Z,26.4
2023-05-12T11:04:10.486Z,26.4
2023-05-12T11:05:01.739Z,26.3
2023-05-12T11:06:02.906Z,26.4
2023-05-12T11:07:01.390Z,26.6
2023-05-12T11:08:00.822Z,26.6
2023-05-12T11:09:01.001Z,26.6
2023-05-12T11:10:01.691Z,26.4
2023-05-12T11:11:00.848Z,26.4
2023-05-12T11:12:00.746Z,26.2
2023-05-12T11:13:01.161Z,26.3
2023-05-12T11:14:00.432Z,26.2
2023-05-12T11:15:01.381Z,25.9
2023-05-12T11:16:00.469Z,26.0
2023-05-12T11:17:00.573Z,25.9
2023-05-12T11:18:01.985Z,25.7
2023-05-12T11:19:02.232Z,25.8
2023-05-12T11:20:00.439Z,25.8
2023-05-12T11:21:07.712Z,25.8
2023-05-12T11:22:04.232Z,25.8
2023-05-12T11:23:00.406Z,26.0
2023-05-12T11:24:01.324Z,26.0
2023-05-12T11:25:08.211Z,26.0
2023-05-12T11:26:00.491Z,26.3
2023-05-12T11:27:00.658Z,26.5
2023-05-12T11:28:00.418Z,26.5
2023-05-12T11:29:02.380Z,26.7
2023-05-12T11:30:01.470Z,26.8
2023-05-12T11:31:00.406Z,26.9
2023-05-12T11:32:00.573Z,27.0
2023-05-12T11:33:01.019Z,26.9
2023-05-12T11:34:12.003Z,27.0
2023-05-12T11:35:10.298Z,27.0
2023-05-12T11:36:03.418Z,27.0
2023-05-12T11:37:02.592Z,26.9
2023-05-12T11:38:00.425Z,26.8
2023-05-12T11:39:00.472Z,26.7
2023-05-12T11:40:00.433Z,26.5
2023-05-12T11:41:00.495Z,26.7
2023-05-12T11:42:12.059Z,26.6
2023-05-12T11:43:08.082Z,26.6
2023-05-12T11:44:10.318Z,26.8
2023-05-12T11:45:00.514Z,26.6
2023-05-12T11:46:00.426Z,26.7
2023-05-12T11:47:00.400Z,26.8
2023-05-12T11:48:08.044Z,26.7
2023-05-12T11:49:00.417Z,26.9
2023-05-12T11:50:02.221Z,26.8
2023-05-12T11:51:01.410Z,26.9
2023-05-12T11:52:01.155Z,26.7
2023-05-12T11:53:00.493Z,26.9
2023-05-12T11:54:00.443Z,26.7
2023-05-12T11:55:00.532Z,26.7
2023-05-12T11:56:00.444Z,26.8
2023-05-12T11:57:00.409Z,26.6
2023-05-12T11:58:01.224Z,26.8
2023-05-12T11:59:00.467Z,26.8
2023-05-12T12:00:03.056Z,26.8
2023-05-12T12:01:08.742Z,26.7
2023-05-12T12:02:01.487Z,26.5
2023-05-12T12:03:10.516Z,26.7
2023-05-12T12:04:00.527Z,26.8
2023-05-12T12:05:00.409Z,26.8
2023-05-12T12:06:01.273Z,27.0
2023-05-12T12:07:00.650Z,27.3
2023-05-12T12:08:04.181Z,27.1
2023-05-12T12:09:00.452Z,27.0
2023-05-12T12:10:10.318Z,26.7
2023-05-12T12:11:03.409Z,26.7
2023-05-12T12:12:00.683Z,26.8
2023-05-12T12:13:00.505Z,26.4
2023-05-12T12:14:00.407Z,26.7
2023-05-12T12:15:00.434Z,26.5
2023-05-12T12:16:00.422Z,26.7
2023-05-12T12:17:00.921Z,26.9
2023-05-12T12:18:00.477Z,26.9
2023-05-12T12:19:00.450Z,27.0
2023-05-12T12:20:00.434Z,27.0
2023-05-12T12:21:00.511Z,27.1
2023-05-12T12:22:00.461Z,27.1
2023-05-12T12:23:00.425Z,27.2
2023-05-12T12:24:00.408Z,27.1
2023-05-12T12:25:00.865Z,27.1
2023-05-12T12:26:00.416Z,27.3
2023-05-12T12:27:00.412Z,27.5
2023-05-12T12:28:00.442Z,27.4
2023-05-12T12:29:00.412Z,27.8
2023-05-12T12:30:00.449Z,27.5
2023-05-12T12:31:00.509Z,27.3
2023-05-12T12:32:00.620Z,27.2
2023-05-12T12:33:00.486Z,27.4
2023-05-12T12:34:00.406Z,27.2
2023-05-12T12:35:00.401Z,27.5
2023-05-12T12:36:00.420Z,27.8
2023-05-12T12:37:00.417Z,27.9
2023-05-12T12:38:00.467Z,27.7
2023-05-12T12:39:00.732Z,27.5
2023-05-12T12:40:00.572Z,27.5
2023-05-12T12:41:00.414Z,27.7
2023-05-12T12:42:00.447Z,27.6
2023-05-12T12:43:00.502Z,27.4
2023-05-12T12:44:00.389Z,26.8
2023-05-12T12:45:00.879Z,26.5
2023-05-12T12:46:00.455Z,26.6
2023-05-12T12:47:00.420Z,26.7
2023-05-12T12:48:00.459Z,26.8
2023-05-12T12:49:00.425Z,27.0
2023-05-12T12:50:00.483Z,27.2
2023-05-12T12:51:00.475Z,27.4
2023-05-12T12:52:00.397Z,27.3
2023-05-12T12:53:00.409Z,27.1
2023-05-12T12:54:00.473Z,27.1
2023-05-12T12:55:00.397Z,27.3
2023-05-12T12:56:00.398Z,27.5
2023-05-12T12:57:00.386Z,27.5
2023-05-12T12:58:00.384Z,27.4
2023-05-12T12:59:00.407Z,27.3
2023-05-12T13:00:00.498Z,27.3
2023-05-12T13:01:00.719Z,27.1
2023-05-12T13:02:00.501Z,27.0
2023-05-12T13:03:00.617Z,26.9
2023-05-12T13:04:00.404Z,27.2
2023-05-12T13:05:00.525Z,27.1
2023-05-12T13:06:00.418Z,27.2
2023-05-12T13:07:00.380Z,27.3
2023-05-12T13:08:00.417Z,26.8
2023-05-12T13:09:00.451Z,26.3
2023-05-12T13:10:00.458Z,26.2
2023-05-12T13:11:00.399Z,26.4
2023-05-12T13:12:00.392Z,25.8
2023-05-12T13:13:00.437Z,25.3
2023-05-12T13:14:00.388Z,24.6
2023-05-12T13:15:00.704Z,24.9
2023-05-12T13:16:00.456Z,24.8
2023-05-12T13:17:00.441Z,25.2
2023-05-12T13:18:00.427Z,25.2
2023-05-12T13:19:00.496Z,25.2
2023-05-12T13:20:00.519Z,24.3
2023-05-12T13:21:00.792Z,24.1
2023-05-12T13:22:00.593Z,23.7
2023-05-12T13:23:00.416Z,23.9
2023-05-12T13:24:00.407Z,24.4
2023-05-12T13:25:00.462Z,24.7
2023-05-12T13:26:00.446Z,25.2
2023-05-12T13:27:00.524Z,25.8
2023-05-12T13:28:00.421Z,25.7
2023-05-12T13:29:00.446Z,24.9
2023-05-12T13:30:00.510Z,24.8
2023-05-12T13:31:00.449Z,24.7
2023-05-12T13:32:00.414Z,24.2
2023-05-12T13:33:00.508Z,23.6